sensor_id;sensor_type;location;lat;lon;timestamp;temperature;humidity
27492;DHT22;14927;51.210;6.838;2022-09-20T00:00:17;16.60;62.60
27492;DHT22;14927;51.210;6.838;2022-09-20T00:03:02;16.70;62.70
27492;DHT22;14927;51.210;6.838;2022-09-20T00:05:47;16.60;62.80
27492;DHT22;14927;51.210;6.838;2022-09-20T00:08:32;16.70;62.90
27492;DHT22;14927;51.210;6.838;2022-09-20T00:11:23;16.60;62.80
27492;DHT22;14927;51.210;6.838;2022-09-20T00:14:09;16.60;62.90
27492;DHT22;14927;51.210;6.838;2022-09-20T00:16:54;16.60;62.80
27492;DHT22;14927;51.210;6.838;2022-09-20T00:19:39;16.60;62.90
27492;DHT22;14927;51.210;6.838;2022-09-20T00:22:24;16.60;62.90
27492;DHT22;14927;51.210;6.838;2022-09-20T00:25:10;16.60;62.80
27492;DHT22;14927;51.210;6.838;2022-09-20T00:27:55;16.60;62.80
27492;DHT22;14927;51.210;6.838;2022-09-20T00:30:39;16.70;62.90
27492;DHT22;14927;51.210;6.838;2022-09-20T00:33:25;16.60;62.90
27492;DHT22;14927;51.210;6.838;2022-09-20T00:36:32;16.60;62.80
27492;DHT22;14927;51.210;6.838;2022-09-20T00:39:17;16.70;62.90
27492;DHT22;14927;51.210;6.838;2022-09-20T00:42:02;16.60;62.80
27492;DHT22;14927;51.210;6.838;2022-09-20T00:44:59;16.70;62.90
27492;DHT22;14927;51.210;6.838;2022-09-20T00:47:58;16.60;63.00
27492;DHT22;14927;51.210;6.838;2022-09-20T00:50:51;16.70;63.00
27492;DHT22;14927;51.210;6.838;2022-09-20T00:53:42;16.70;63.00
27492;DHT22;14927;51.210;6.838;2022-09-20T00:56:33;16.70;63.00
27492;DHT22;14927;51.210;6.838;2022-09-20T00:59:23;16.70;63.00
27492;DHT22;14927;51.210;6.838;2022-09-20T01:02:15;16.70;63.10
27492;DHT22;14927;51.210;6.838;2022-09-20T01:05:08;16.70;63.30
27492;DHT22;14927;51.210;6.838;2022-09-20T01:07:55;16.70;63.30
27492;DHT22;14927;51.210;6.838;2022-09-20T01:10:41;16.70;63.30
27492;DHT22;14927;51.210;6.838;2022-09-20T01:13:27;16.70;63.40
27492;DHT22;14927;51.210;6.838;2022-09-20T01:16:14;16.70;63.40
27492;DHT22;14927;51.210;6.838;2022-09-20T01:19:07;16.70;63.50
27492;DHT22;14927;51.210;6.838;2022-09-20T01:29:10;16.70;63.70
27492;DHT22;14927;51.210;6.838;2022-09-20T01:32:01;16.70;63.70
27492;DHT22;14927;51.210;6.838;2022-09-20T01:34:53;16.70;63.50
27492;DHT22;14927;51.210;6.838;2022-09-20T01:37:53;16.70;63.60
27492;DHT22;14927;51.210;6.838;2022-09-20T01:41:08;16.70;63.80
27492;DHT22;14927;51.210;6.838;2022-09-20T01:46:49;16.70;64.50
27492;DHT22;14927;51.210;6.838;2022-09-20T02:03:58;16.70;64.40
27492;DHT22;14927;51.210;6.838;2022-09-20T02:07:20;16.70;63.80
27492;DHT22;14927;51.210;6.838;2022-09-20T02:10:44;16.70;64.00
27492;DHT22;14927;51.210;6.838;2022-09-20T02:14:03;16.70;64.00
27492;DHT22;14927;51.210;6.838;2022-09-20T02:17:09;16.70;63.80
27492;DHT22;14927;51.210;6.838;2022-09-20T02:20:14;16.70;63.60
27492;DHT22;14927;51.210;6.838;2022-09-20T02:33:16;16.70;63.90
27492;DHT22;14927;51.210;6.838;2022-09-20T02:36:29;16.70;63.80
27492;DHT22;14927;51.210;6.838;2022-09-20T02:39:35;16.70;63.70
27492;DHT22;14927;51.210;6.838;2022-09-20T02:45:44;16.70;63.50
27492;DHT22;14927;51.210;6.838;2022-09-20T02:51:57;16.60;63.60
27492;DHT22;14927;51.210;6.838;2022-09-20T02:55:11;16.70;63.80
27492;DHT22;14927;51.210;6.838;2022-09-20T03:08:14;16.70;63.80
27492;DHT22;14927;51.210;6.838;2022-09-20T03:11:45;16.70;63.90
27492;DHT22;14927;51.210;6.838;2022-09-20T03:15:25;16.70;63.80
27492;DHT22;14927;51.210;6.838;2022-09-20T03:31:07;16.60;63.70
27492;DHT22;14927;51.210;6.838;2022-09-20T03:37:59;16.60;63.50
27492;DHT22;14927;51.210;6.838;2022-09-20T03:57:43;16.60;63.70
27492;DHT22;14927;51.210;6.838;2022-09-20T04:20:18;16.60;64.10
27492;DHT22;14927;51.210;6.838;2022-09-20T04:23:32;16.60;64.00
27492;DHT22;14927;51.210;6.838;2022-09-20T04:26:56;16.60;64.00
27492;DHT22;14927;51.210;6.838;2022-09-20T04:33:05;16.60;64.00
27492;DHT22;14927;51.210;6.838;2022-09-20T04:36:05;16.60;64.20
27492;DHT22;14927;51.210;6.838;2022-09-20T04:52:41;16.60;64.30
27492;DHT22;14927;51.210;6.838;2022-09-20T04:59:05;16.60;64.10
27492;DHT22;14927;51.210;6.838;2022-09-20T05:05:43;16.60;64.30
27492;DHT22;14927;51.210;6.838;2022-09-20T05:16:21;16.50;64.40
27492;DHT22;14927;51.210;6.838;2022-09-20T05:23:21;16.60;64.10
27492;DHT22;14927;51.210;6.838;2022-09-20T05:29:49;16.50;64.40
27492;DHT22;14927;51.210;6.838;2022-09-20T05:33:00;16.50;64.40
27492;DHT22;14927;51.210;6.838;2022-09-20T05:36:16;16.50;64.50
27492;DHT22;14927;51.210;6.838;2022-09-20T05:42:54;16.50;64.60
27492;DHT22;14927;51.210;6.838;2022-09-20T05:46:35;16.60;64.80
27492;DHT22;14927;51.210;6.838;2022-09-20T05:57:11;16.50;64.90
27492;DHT22;14927;51.210;6.838;2022-09-20T06:03:08;16.50;64.80
27492;DHT22;14927;51.210;6.838;2022-09-20T06:06:11;16.50;64.90
27492;DHT22;14927;51.210;6.838;2022-09-20T06:12:51;16.50;64.90
27492;DHT22;14927;51.210;6.838;2022-09-20T06:15:49;16.50;64.60
27492;DHT22;14927;51.210;6.838;2022-09-20T06:21:55;16.50;64.70
27492;DHT22;14927;51.210;6.838;2022-09-20T06:24:55;16.60;64.80
27492;DHT22;14927;51.210;6.838;2022-09-20T06:31:00;16.60;65.10
27492;DHT22;14927;51.210;6.838;2022-09-20T06:33:57;16.60;64.80
27492;DHT22;14927;51.210;6.838;2022-09-20T06:36:53;16.60;64.70
27492;DHT22;14927;51.210;6.838;2022-09-20T06:40:38;16.60;64.60
27492;DHT22;14927;51.210;6.838;2022-09-20T06:43:46;16.60;64.50
27492;DHT22;14927;51.210;6.838;2022-09-20T06:46:34;16.70;64.40
27492;DHT22;14927;51.210;6.838;2022-09-20T06:49:20;16.70;64.40
27492;DHT22;14927;51.210;6.838;2022-09-20T06:52:09;16.70;64.30
27492;DHT22;14927;51.210;6.838;2022-09-20T06:55:00;16.70;64.30
27492;DHT22;14927;51.210;6.838;2022-09-20T06:57:50;16.70;64.10
27492;DHT22;14927;51.210;6.838;2022-09-20T07:00:36;16.80;64.10
27492;DHT22;14927;51.210;6.838;2022-09-20T07:03:23;16.80;64.00
27492;DHT22;14927;51.210;6.838;2022-09-20T07:06:09;16.80;63.80
27492;DHT22;14927;51.210;6.838;2022-09-20T07:08:55;16.80;63.80
27492;DHT22;14927;51.210;6.838;2022-09-20T07:11:39;16.80;64.10
27492;DHT22;14927;51.210;6.838;2022-09-20T07:14:26;16.80;64.00
27492;DHT22;14927;51.210;6.838;2022-09-20T07:17:13;16.80;64.00
27492;DHT22;14927;51.210;6.838;2022-09-20T07:19:57;16.80;64.10
27492;DHT22;14927;51.210;6.838;2022-09-20T07:22:42;16.90;64.20
27492;DHT22;14927;51.210;6.838;2022-09-20T07:25:27;16.90;64.30
27492;DHT22;14927;51.210;6.838;2022-09-20T07:28:12;16.90;64.10
27492;DHT22;14927;51.210;6.838;2022-09-20T07:30:57;17.00;63.70
27492;DHT22;14927;51.210;6.838;2022-09-20T07:33:42;17.00;63.50
27492;DHT22;14927;51.210;6.838;2022-09-20T07:36:26;17.00;63.30
27492;DHT22;14927;51.210;6.838;2022-09-20T07:39:12;17.10;63.10
27492;DHT22;14927;51.210;6.838;2022-09-20T07:41:58;17.10;62.90
27492;DHT22;14927;51.210;6.838;2022-09-20T07:44:42;17.20;62.70
27492;DHT22;14927;51.210;6.838;2022-09-20T07:47:31;17.20;62.40
27492;DHT22;14927;51.210;6.838;2022-09-20T07:50:18;17.20;62.20
27492;DHT22;14927;51.210;6.838;2022-09-20T07:53:03;17.30;61.90
27492;DHT22;14927;51.210;6.838;2022-09-20T07:55:59;17.40;61.80
27492;DHT22;14927;51.210;6.838;2022-09-20T07:58:45;17.40;61.30
27492;DHT22;14927;51.210;6.838;2022-09-20T08:01:31;17.40;61.40
27492;DHT22;14927;51.210;6.838;2022-09-20T08:04:16;17.50;61.10
27492;DHT22;14927;51.210;6.838;2022-09-20T08:07:01;17.50;60.80
27492;DHT22;14927;51.210;6.838;2022-09-20T08:09:46;17.60;60.60
27492;DHT22;14927;51.210;6.838;2022-09-20T08:12:30;17.60;60.10
27492;DHT22;14927;51.210;6.838;2022-09-20T08:15:16;17.70;59.40
27492;DHT22;14927;51.210;6.838;2022-09-20T08:18:01;17.70;59.00
27492;DHT22;14927;51.210;6.838;2022-09-20T08:20:47;17.80;59.00
27492;DHT22;14927;51.210;6.838;2022-09-20T08:23:41;17.80;59.10
27492;DHT22;14927;51.210;6.838;2022-09-20T08:26:27;17.80;58.90
27492;DHT22;14927;51.210;6.838;2022-09-20T08:29:14;17.90;58.90
27492;DHT22;14927;51.210;6.838;2022-09-20T08:31:59;17.90;58.60
27492;DHT22;14927;51.210;6.838;2022-09-20T08:34:48;18.00;58.40
27492;DHT22;14927;51.210;6.838;2022-09-20T08:37:33;18.00;58.30
27492;DHT22;14927;51.210;6.838;2022-09-20T08:40:18;18.10;58.20
27492;DHT22;14927;51.210;6.838;2022-09-20T08:43:08;18.10;58.10
27492;DHT22;14927;51.210;6.838;2022-09-20T08:45:57;18.10;58.00
27492;DHT22;14927;51.210;6.838;2022-09-20T08:48:43;18.10;57.90
27492;DHT22;14927;51.210;6.838;2022-09-20T08:51:33;18.20;58.00
27492;DHT22;14927;51.210;6.838;2022-09-20T08:54:19;18.20;57.60
27492;DHT22;14927;51.210;6.838;2022-09-20T08:57:15;18.20;57.50
27492;DHT22;14927;51.210;6.838;2022-09-20T09:00:03;18.10;57.20
27492;DHT22;14927;51.210;6.838;2022-09-20T09:02:53;18.20;57.20
27492;DHT22;14927;51.210;6.838;2022-09-20T09:05:54;18.10;57.10
27492;DHT22;14927;51.210;6.838;2022-09-20T09:08:41;18.10;57.00
27492;DHT22;14927;51.210;6.838;2022-09-20T09:11:27;18.10;57.20
27492;DHT22;14927;51.210;6.838;2022-09-20T09:17:34;18.20;57.10
27492;DHT22;14927;51.210;6.838;2022-09-20T09:20:21;18.20;57.30
27492;DHT22;14927;51.210;6.838;2022-09-20T09:23:07;18.30;56.90
27492;DHT22;14927;51.210;6.838;2022-09-20T09:26:21;18.30;56.50
27492;DHT22;14927;51.210;6.838;2022-09-20T09:29:17;18.40;56.00
27492;DHT22;14927;51.210;6.838;2022-09-20T09:32:33;18.40;55.90
27492;DHT22;14927;51.210;6.838;2022-09-20T09:35:28;18.50;55.90
27492;DHT22;14927;51.210;6.838;2022-09-20T09:38:20;18.60;55.90
27492;DHT22;14927;51.210;6.838;2022-09-20T09:41:28;18.50;55.90
27492;DHT22;14927;51.210;6.838;2022-09-20T09:47:29;18.70;55.40
27492;DHT22;14927;51.210;6.838;2022-09-20T09:50:29;18.70;54.60
27492;DHT22;14927;51.210;6.838;2022-09-20T09:53:22;18.80;55.20
27492;DHT22;14927;51.210;6.838;2022-09-20T10:06:45;19.00;52.30
27492;DHT22;14927;51.210;6.838;2022-09-20T10:13:42;19.20;52.00
27492;DHT22;14927;51.210;6.838;2022-09-20T10:23:22;19.30;50.70
27492;DHT22;14927;51.210;6.838;2022-09-20T10:26:57;19.30;50.50
27492;DHT22;14927;51.210;6.838;2022-09-20T10:30:21;19.30;50.40
27492;DHT22;14927;51.210;6.838;2022-09-20T10:33:18;19.30;50.70
27492;DHT22;14927;51.210;6.838;2022-09-20T10:36:41;19.40;50.80
27492;DHT22;14927;51.210;6.838;2022-09-20T10:42:47;19.40;51.40
27492;DHT22;14927;51.210;6.838;2022-09-20T10:46:13;19.30;51.20
27492;DHT22;14927;51.210;6.838;2022-09-20T10:52:48;19.30;51.10
27492;DHT22;14927;51.210;6.838;2022-09-20T11:05:20;19.30;52.90
27492;DHT22;14927;51.210;6.838;2022-09-20T11:08:12;19.30;52.90
27492;DHT22;14927;51.210;6.838;2022-09-20T11:11:11;19.30;52.90
27492;DHT22;14927;51.210;6.838;2022-09-20T11:14:15;19.30;52.80
27492;DHT22;14927;51.210;6.838;2022-09-20T11:17:11;19.30;52.40
27492;DHT22;14927;51.210;6.838;2022-09-20T11:20:18;19.30;52.90
27492;DHT22;14927;51.210;6.838;2022-09-20T11:23:21;19.30;52.70
27492;DHT22;14927;51.210;6.838;2022-09-20T11:26:24;19.30;52.20
27492;DHT22;14927;51.210;6.838;2022-09-20T11:29:31;19.30;52.40
27492;DHT22;14927;51.210;6.838;2022-09-20T11:32:19;19.40;52.80
27492;DHT22;14927;51.210;6.838;2022-09-20T11:38:21;19.40;51.70
27492;DHT22;14927;51.210;6.838;2022-09-20T11:41:13;19.40;51.50
27492;DHT22;14927;51.210;6.838;2022-09-20T11:44:09;19.50;51.60
27492;DHT22;14927;51.210;6.838;2022-09-20T11:47:04;19.50;51.00
27492;DHT22;14927;51.210;6.838;2022-09-20T11:56:35;19.80;50.70
27492;DHT22;14927;51.210;6.838;2022-09-20T11:59:29;20.00;50.80
27492;DHT22;14927;51.210;6.838;2022-09-20T12:02:48;20.10;49.50
27492;DHT22;14927;51.210;6.838;2022-09-20T12:05:38;20.20;49.30
27492;DHT22;14927;51.210;6.838;2022-09-20T12:08:36;20.40;49.70
27492;DHT22;14927;51.210;6.838;2022-09-20T12:11:33;20.50;48.70
27492;DHT22;14927;51.210;6.838;2022-09-20T12:14:22;20.60;48.80
27492;DHT22;14927;51.210;6.838;2022-09-20T12:26:43;21.20;47.90
27492;DHT22;14927;51.210;6.838;2022-09-20T12:41:15;21.30;48.00
27492;DHT22;14927;51.210;6.838;2022-09-20T12:44:05;21.30;48.60
27492;DHT22;14927;51.210;6.838;2022-09-20T12:47:29;21.30;48.30
27492;DHT22;14927;51.210;6.838;2022-09-20T12:50:15;21.30;47.80
27492;DHT22;14927;51.210;6.838;2022-09-20T12:53:18;21.20;47.90
27492;DHT22;14927;51.210;6.838;2022-09-20T12:56:06;21.20;48.10
27492;DHT22;14927;51.210;6.838;2022-09-20T12:58:52;21.20;48.80
27492;DHT22;14927;51.210;6.838;2022-09-20T13:01:38;21.20;49.20
27492;DHT22;14927;51.210;6.838;2022-09-20T13:04:48;21.30;49.10
27492;DHT22;14927;51.210;6.838;2022-09-20T13:07:45;21.40;48.30
27492;DHT22;14927;51.210;6.838;2022-09-20T13:10:35;21.50;48.10
27492;DHT22;14927;51.210;6.838;2022-09-20T13:16:51;21.70;47.90
27492;DHT22;14927;51.210;6.838;2022-09-20T13:19:42;21.80;47.50
27492;DHT22;14927;51.210;6.838;2022-09-20T13:22:34;21.90;47.00
27492;DHT22;14927;51.210;6.838;2022-09-20T13:25:21;22.00;47.30
27492;DHT22;14927;51.210;6.838;2022-09-20T13:28:14;22.10;47.50
27492;DHT22;14927;51.210;6.838;2022-09-20T13:34:23;22.30;46.60
27492;DHT22;14927;51.210;6.838;2022-09-20T13:37:17;22.40;46.50
27492;DHT22;14927;51.210;6.838;2022-09-20T13:43:36;22.90;46.60
27492;DHT22;14927;51.210;6.838;2022-09-20T13:46:31;23.30;45.90
27492;DHT22;14927;51.210;6.838;2022-09-20T13:49:18;23.50;45.90
27492;DHT22;14927;51.210;6.838;2022-09-20T13:52:26;23.90;45.80
27492;DHT22;14927;51.210;6.838;2022-09-20T13:55:39;24.20;44.20
27492;DHT22;14927;51.210;6.838;2022-09-20T13:58:42;24.70;43.40
27492;DHT22;14927;51.210;6.838;2022-09-20T14:01:29;25.00;42.20
27492;DHT22;14927;51.210;6.838;2022-09-20T14:04:17;25.20;42.60
27492;DHT22;14927;51.210;6.838;2022-09-20T14:07:05;25.40;42.20
27492;DHT22;14927;51.210;6.838;2022-09-20T14:09:51;25.70;41.70
27492;DHT22;14927;51.210;6.838;2022-09-20T14:12:37;26.00;40.80
27492;DHT22;14927;51.210;6.838;2022-09-20T14:15:22;26.20;40.20
27492;DHT22;14927;51.210;6.838;2022-09-20T14:18:15;26.30;38.80
27492;DHT22;14927;51.210;6.838;2022-09-20T14:21:01;26.30;37.70
27492;DHT22;14927;51.210;6.838;2022-09-20T14:24:07;26.20;38.00
27492;DHT22;14927;51.210;6.838;2022-09-20T14:27:20;26.10;36.90
27492;DHT22;14927;51.210;6.838;2022-09-20T14:30:06;26.00;37.20
27492;DHT22;14927;51.210;6.838;2022-09-20T14:33:18;25.80;37.60
27492;DHT22;14927;51.210;6.838;2022-09-20T14:36:03;25.70;37.30
27492;DHT22;14927;51.210;6.838;2022-09-20T14:38:53;25.60;37.50
27492;DHT22;14927;51.210;6.838;2022-09-20T14:41:42;25.40;37.10
27492;DHT22;14927;51.210;6.838;2022-09-20T14:44:32;25.30;37.10
27492;DHT22;14927;51.210;6.838;2022-09-20T14:47:25;25.10;37.30
27492;DHT22;14927;51.210;6.838;2022-09-20T14:50:30;24.90;37.00
27492;DHT22;14927;51.210;6.838;2022-09-20T14:53:25;24.90;37.20
27492;DHT22;14927;51.210;6.838;2022-09-20T14:56:12;24.80;36.70
27492;DHT22;14927;51.210;6.838;2022-09-20T15:02:14;24.60;37.00
27492;DHT22;14927;51.210;6.838;2022-09-20T15:04:59;24.50;37.00
27492;DHT22;14927;51.210;6.838;2022-09-20T15:07:44;24.40;37.40
27492;DHT22;14927;51.210;6.838;2022-09-20T15:10:28;24.30;37.60
27492;DHT22;14927;51.210;6.838;2022-09-20T15:13:13;24.20;37.70
27492;DHT22;14927;51.210;6.838;2022-09-20T15:15:58;24.10;37.60
27492;DHT22;14927;51.210;6.838;2022-09-20T15:18:43;24.10;37.50
27492;DHT22;14927;51.210;6.838;2022-09-20T15:21:27;24.00;37.40
27492;DHT22;14927;51.210;6.838;2022-09-20T15:24:13;24.00;36.90
27492;DHT22;14927;51.210;6.838;2022-09-20T15:27:00;23.90;37.50
27492;DHT22;14927;51.210;6.838;2022-09-20T15:29:46;23.80;36.70
27492;DHT22;14927;51.210;6.838;2022-09-20T15:32:31;23.70;36.70
27492;DHT22;14927;51.210;6.838;2022-09-20T15:35:15;23.70;36.80
27492;DHT22;14927;51.210;6.838;2022-09-20T15:38:00;23.60;36.90
27492;DHT22;14927;51.210;6.838;2022-09-20T15:40:48;23.50;37.10
27492;DHT22;14927;51.210;6.838;2022-09-20T15:43:32;23.50;37.20
27492;DHT22;14927;51.210;6.838;2022-09-20T15:46:19;23.40;37.30
27492;DHT22;14927;51.210;6.838;2022-09-20T15:49:06;23.40;37.50
27492;DHT22;14927;51.210;6.838;2022-09-20T15:51:51;23.30;37.60
27492;DHT22;14927;51.210;6.838;2022-09-20T15:54:36;23.30;37.70
27492;DHT22;14927;51.210;6.838;2022-09-20T15:57:21;23.20;38.70
27492;DHT22;14927;51.210;6.838;2022-09-20T16:00:08;23.10;38.20
27492;DHT22;14927;51.210;6.838;2022-09-20T16:02:53;23.10;38.30
27492;DHT22;14927;51.210;6.838;2022-09-20T16:05:40;23.00;38.40
27492;DHT22;14927;51.210;6.838;2022-09-20T16:08:26;23.00;38.60
27492;DHT22;14927;51.210;6.838;2022-09-20T16:11:17;22.90;38.90
27492;DHT22;14927;51.210;6.838;2022-09-20T16:14:05;22.80;39.10
27492;DHT22;14927;51.210;6.838;2022-09-20T16:16:50;22.80;39.30
27492;DHT22;14927;51.210;6.838;2022-09-20T16:19:35;22.70;39.50
27492;DHT22;14927;51.210;6.838;2022-09-20T16:22:21;22.60;39.40
27492;DHT22;14927;51.210;6.838;2022-09-20T16:25:06;22.60;39.60
27492;DHT22;14927;51.210;6.838;2022-09-20T16:27:51;22.50;39.60
27492;DHT22;14927;51.210;6.838;2022-09-20T16:30:36;22.40;39.80
27492;DHT22;14927;51.210;6.838;2022-09-20T16:33:20;22.40;40.00
27492;DHT22;14927;51.210;6.838;2022-09-20T16:36:07;22.30;40.10
27492;DHT22;14927;51.210;6.838;2022-09-20T16:38:52;22.30;40.30
27492;DHT22;14927;51.210;6.838;2022-09-20T16:41:39;22.20;41.10
27492;DHT22;14927;51.210;6.838;2022-09-20T16:44:23;22.20;40.70
27492;DHT22;14927;51.210;6.838;2022-09-20T16:47:13;22.10;40.80
27492;DHT22;14927;51.210;6.838;2022-09-20T16:50:05;22.00;41.00
27492;DHT22;14927;51.210;6.838;2022-09-20T16:52:51;22.00;41.20
27492;DHT22;14927;51.210;6.838;2022-09-20T16:55:36;22.00;41.40
27492;DHT22;14927;51.210;6.838;2022-09-20T16:58:34;21.90;42.10
27492;DHT22;14927;51.210;6.838;2022-09-20T17:01:20;21.90;41.10
27492;DHT22;14927;51.210;6.838;2022-09-20T17:04:05;21.80;41.20
27492;DHT22;14927;51.210;6.838;2022-09-20T17:06:50;21.80;41.50
27492;DHT22;14927;51.210;6.838;2022-09-20T17:09:36;21.70;41.30
27492;DHT22;14927;51.210;6.838;2022-09-20T17:12:20;21.70;41.40
27492;DHT22;14927;51.210;6.838;2022-09-20T17:15:08;21.60;41.40
27492;DHT22;14927;51.210;6.838;2022-09-20T17:17:56;21.60;41.50
27492;DHT22;14927;51.210;6.838;2022-09-20T17:20:41;21.60;42.40
27492;DHT22;14927;51.210;6.838;2022-09-20T17:23:27;21.60;42.00
27492;DHT22;14927;51.210;6.838;2022-09-20T17:26:29;21.50;42.20
27492;DHT22;14927;51.210;6.838;2022-09-20T17:29:19;21.40;42.50
27492;DHT22;14927;51.210;6.838;2022-09-20T17:32:04;21.40;42.80
27492;DHT22;14927;51.210;6.838;2022-09-20T17:34:49;21.30;43.10
27492;DHT22;14927;51.210;6.838;2022-09-20T17:37:45;21.30;43.40
27492;DHT22;14927;51.210;6.838;2022-09-20T17:40:30;21.20;44.00
27492;DHT22;14927;51.210;6.838;2022-09-20T17:43:15;21.20;44.00
27492;DHT22;14927;51.210;6.838;2022-09-20T17:46:18;21.10;44.10
27492;DHT22;14927;51.210;6.838;2022-09-20T17:49:08;21.10;44.40
27492;DHT22;14927;51.210;6.838;2022-09-20T17:51:54;21.00;44.40
27492;DHT22;14927;51.210;6.838;2022-09-20T17:54:39;21.00;44.70
27492;DHT22;14927;51.210;6.838;2022-09-20T17:57:24;20.90;44.80
27492;DHT22;14927;51.210;6.838;2022-09-20T18:00:09;20.90;45.60
27492;DHT22;14927;51.210;6.838;2022-09-20T18:02:54;20.80;45.10
27492;DHT22;14927;51.210;6.838;2022-09-20T18:05:39;20.80;45.20
27492;DHT22;14927;51.210;6.838;2022-09-20T18:08:31;20.70;45.30
27492;DHT22;14927;51.210;6.838;2022-09-20T18:11:18;20.70;45.40
27492;DHT22;14927;51.210;6.838;2022-09-20T18:14:06;20.70;45.50
27492;DHT22;14927;51.210;6.838;2022-09-20T18:16:55;20.60;45.60
27492;DHT22;14927;51.210;6.838;2022-09-20T18:19:43;20.60;45.80
27492;DHT22;14927;51.210;6.838;2022-09-20T18:22:28;20.60;46.10
27492;DHT22;14927;51.210;6.838;2022-09-20T18:25:13;20.50;45.70
27492;DHT22;14927;51.210;6.838;2022-09-20T18:27:57;20.50;46.10
27492;DHT22;14927;51.210;6.838;2022-09-20T18:30:42;20.40;46.30
27492;DHT22;14927;51.210;6.838;2022-09-20T18:33:41;20.40;46.60
27492;DHT22;14927;51.210;6.838;2022-09-20T18:36:27;20.30;46.70
27492;DHT22;14927;51.210;6.838;2022-09-20T18:39:14;20.30;46.80
27492;DHT22;14927;51.210;6.838;2022-09-20T18:41:59;20.20;47.10
27492;DHT22;14927;51.210;6.838;2022-09-20T18:44:44;20.10;47.30
27492;DHT22;14927;51.210;6.838;2022-09-20T18:47:29;20.10;47.40
27492;DHT22;14927;51.210;6.838;2022-09-20T18:50:19;20.00;47.70
27492;DHT22;14927;51.210;6.838;2022-09-20T18:53:04;19.90;47.90
27492;DHT22;14927;51.210;6.838;2022-09-20T18:55:50;19.90;48.00
27492;DHT22;14927;51.210;6.838;2022-09-20T18:58:36;19.80;48.30
27492;DHT22;14927;51.210;6.838;2022-09-20T19:08:33;19.60;49.30
27492;DHT22;14927;51.210;6.838;2022-09-20T19:11:31;19.50;49.40
27492;DHT22;14927;51.210;6.838;2022-09-20T19:14:33;19.40;49.50
27492;DHT22;14927;51.210;6.838;2022-09-20T19:17:34;19.40;49.90
27492;DHT22;14927;51.210;6.838;2022-09-20T19:20:46;19.20;49.80
27492;DHT22;14927;51.210;6.838;2022-09-20T19:26:38;19.10;50.70
27492;DHT22;14927;51.210;6.838;2022-09-20T19:29:25;19.00;50.50
27492;DHT22;14927;51.210;6.838;2022-09-20T19:32:14;18.90;51.00
27492;DHT22;14927;51.210;6.838;2022-09-20T19:35:02;18.90;51.30
27492;DHT22;14927;51.210;6.838;2022-09-20T19:50:47;18.50;52.60
27492;DHT22;14927;51.210;6.838;2022-09-20T19:53:33;18.40;52.50
27492;DHT22;14927;51.210;6.838;2022-09-20T19:56:26;18.40;52.60
27492;DHT22;14927;51.210;6.838;2022-09-20T19:59:13;18.30;53.30
27492;DHT22;14927;51.210;6.838;2022-09-20T20:02:00;18.20;53.10
27492;DHT22;14927;51.210;6.838;2022-09-20T20:04:46;18.20;53.40
27492;DHT22;14927;51.210;6.838;2022-09-20T20:26:30;17.70;54.80
27492;DHT22;14927;51.210;6.838;2022-09-20T20:29:15;17.70;55.10
27492;DHT22;14927;51.210;6.838;2022-09-20T20:32:00;17.60;55.30
27492;DHT22;14927;51.210;6.838;2022-09-20T20:34:45;17.50;55.60
27492;DHT22;14927;51.210;6.838;2022-09-20T20:37:30;17.40;55.80
27492;DHT22;14927;51.210;6.838;2022-09-20T20:40:17;17.40;56.00
27492;DHT22;14927;51.210;6.838;2022-09-20T20:43:02;17.40;56.30
27492;DHT22;14927;51.210;6.838;2022-09-20T20:45:51;17.40;56.50
27492;DHT22;14927;51.210;6.838;2022-09-20T20:48:36;17.30;56.80
27492;DHT22;14927;51.210;6.838;2022-09-20T20:51:22;17.30;56.60
27492;DHT22;14927;51.210;6.838;2022-09-20T20:54:07;17.30;56.80
27492;DHT22;14927;51.210;6.838;2022-09-20T20:56:53;17.20;56.90
27492;DHT22;14927;51.210;6.838;2022-09-20T20:59:38;17.20;57.10
27492;DHT22;14927;51.210;6.838;2022-09-20T21:02:22;17.20;57.30
27492;DHT22;14927;51.210;6.838;2022-09-20T21:05:07;17.10;57.40
27492;DHT22;14927;51.210;6.838;2022-09-20T21:07:52;17.10;57.60
27492;DHT22;14927;51.210;6.838;2022-09-20T21:10:37;17.10;57.80
27492;DHT22;14927;51.210;6.838;2022-09-20T21:13:22;17.10;57.90
27492;DHT22;14927;51.210;6.838;2022-09-20T21:18:54;17.00;58.20
27492;DHT22;14927;51.210;6.838;2022-09-20T21:21:41;17.00;58.20
27492;DHT22;14927;51.210;6.838;2022-09-20T21:24:27;17.00;58.30
27492;DHT22;14927;51.210;6.838;2022-09-20T21:27:11;17.00;58.30
27492;DHT22;14927;51.210;6.838;2022-09-20T21:29:56;16.90;58.30
27492;DHT22;14927;51.210;6.838;2022-09-20T21:32:41;16.90;58.40
27492;DHT22;14927;51.210;6.838;2022-09-20T21:35:25;16.90;58.50
27492;DHT22;14927;51.210;6.838;2022-09-20T21:38:13;16.90;58.70
27492;DHT22;14927;51.210;6.838;2022-09-20T21:41:21;16.80;58.70
27492;DHT22;14927;51.210;6.838;2022-09-20T21:44:10;16.90;59.20
27492;DHT22;14927;51.210;6.838;2022-09-20T21:46:54;16.90;58.70
27492;DHT22;14927;51.210;6.838;2022-09-20T21:49:39;16.80;58.70
27492;DHT22;14927;51.210;6.838;2022-09-20T21:52:27;16.80;58.80
27492;DHT22;14927;51.210;6.838;2022-09-20T21:55:12;16.80;58.90
27492;DHT22;14927;51.210;6.838;2022-09-20T21:57:56;16.80;58.80
27492;DHT22;14927;51.210;6.838;2022-09-20T22:00:41;16.70;58.70
27492;DHT22;14927;51.210;6.838;2022-09-20T22:03:34;16.70;58.80
27492;DHT22;14927;51.210;6.838;2022-09-20T22:06:21;16.60;59.00
27492;DHT22;14927;51.210;6.838;2022-09-20T22:09:22;16.60;58.80
27492;DHT22;14927;51.210;6.838;2022-09-20T22:12:08;16.60;59.20
27492;DHT22;14927;51.210;6.838;2022-09-20T22:14:52;16.50;58.90
27492;DHT22;14927;51.210;6.838;2022-09-20T22:17:37;16.50;59.00
27492;DHT22;14927;51.210;6.838;2022-09-20T22:20:21;16.50;59.10
27492;DHT22;14927;51.210;6.838;2022-09-20T22:23:06;16.40;59.10
27492;DHT22;14927;51.210;6.838;2022-09-20T22:26:02;16.30;59.20
27492;DHT22;14927;51.210;6.838;2022-09-20T22:28:51;16.30;59.50
27492;DHT22;14927;51.210;6.838;2022-09-20T22:31:41;16.30;59.30
27492;DHT22;14927;51.210;6.838;2022-09-20T22:34:29;16.20;59.50
27492;DHT22;14927;51.210;6.838;2022-09-20T22:37:14;16.20;59.40
27492;DHT22;14927;51.210;6.838;2022-09-20T22:40:00;16.20;59.50
27492;DHT22;14927;51.210;6.838;2022-09-20T22:42:45;16.10;59.50
27492;DHT22;14927;51.210;6.838;2022-09-20T22:45:30;16.10;59.70
27492;DHT22;14927;51.210;6.838;2022-09-20T22:48:15;16.10;59.80
27492;DHT22;14927;51.210;6.838;2022-09-20T22:53:53;16.00;60.30
27492;DHT22;14927;51.210;6.838;2022-09-20T22:56:39;16.00;60.00
27492;DHT22;14927;51.210;6.838;2022-09-20T22:59:26;15.90;60.00
27492;DHT22;14927;51.210;6.838;2022-09-20T23:02:11;15.90;60.00
27492;DHT22;14927;51.210;6.838;2022-09-20T23:04:55;15.80;60.10
27492;DHT22;14927;51.210;6.838;2022-09-20T23:07:40;15.80;60.20